Time;durP1;ratioP1;P1;durP2;ratioP2;P2;SDS_P1;SDS_P2;PMS_P1;PMS_P2;Temp;Humidity;BMP_temperature;BMP_pressure;BME280_temperature;BME280_humidity;BME280_pressure;Samples;Min_cycle;Max_cycle;Signal;HPM_P1;HPM_P2
2022/01/03 00:01:31;;;;;;;0.33;0.33;;;10.20;99.90;;;;;;5135112;27;20166;-73
2022/01/03 00:03:57;;;;;;;2.20;0.60;;;10.20;99.90;;;;;;5135410;27;20190;-74
2022/01/03 00:06:23;;;;;;;0.30;0.30;;;10.10;99.90;;;;;;5135004;27;20205;-74
2022/01/03 00:08:49;;;;;;;0.87;0.87;;;10.20;99.90;;;;;;5135088;27;20179;-74
2022/01/03 00:11:17;;;;;;;0.10;0.10;;;10.10;99.90;;;;;;5135136;27;20170;-75
2022/01/03 00:13:45;;;;;;;0.17;0.17;;;10.10;99.90;;;;;;5134861;27;20202;-75
2022/01/03 00:16:11;;;;;;;21.43;2.70;;;10.00;99.90;;;;;;5134174;27;20205;-74
2022/01/03 00:18:37;;;;;;;0.00;0.00;;;10.20;99.90;;;;;;5135004;27;20170;-74
2022/01/03 00:21:07;;;;;;;0.37;0.37;;;10.00;99.90;;;;;;5134824;27;20183;-75
2022/01/03 00:23:36;;;;;;;11.13;3.03;;;10.00;99.90;;;;;;5116330;27;20227;-75
2022/01/03 00:26:03;;;;;;;0.40;0.30;;;10.00;99.90;;;;;;5134400;27;20689;-74
2022/01/03 00:28:34;;;;;;;1.90;0.97;;;9.90;99.90;;;;;;5134475;27;20190;-75
2022/01/03 00:31:01;;;;;;;1.23;1.23;;;10.00;99.90;;;;;;5116315;27;20261;-74
2022/01/03 00:33:27;;;;;;;1.20;0.97;;;9.90;99.90;;;;;;5133677;27;20593;-74
2022/01/03 00:36:01;;;;;;;1.23;0.37;;;9.90;99.90;;;;;;5134109;27;20217;-74
2022/01/03 00:38:34;;;;;;;0.77;0.77;;;9.80;99.90;;;;;;5134567;27;20241;-75
2022/01/03 00:41:02;;;;;;;1.23;1.00;;;9.80;99.90;;;;;;5134280;27;20204;-74
2022/01/03 00:43:28;;;;;;;0.57;0.43;;;9.80;99.90;;;;;;5133817;27;20201;-74
2022/01/03 00:45:55;;;;;;;0.10;0.10;;;9.80;99.90;;;;;;5123805;27;20187;-74
2022/01/03 00:48:21;;;;;;;0.00;0.00;;;9.90;99.90;;;;;;5129144;27;20192;-74
2022/01/03 00:50:47;;;;;;;2.20;0.83;;;9.90;99.90;;;;;;5133899;27;20684;-74
2022/01/03 00:53:13;;;;;;;1.07;1.07;;;10.00;99.90;;;;;;5096803;27;20198;-74
2022/01/03 00:56:02;;;;;;;0.17;0.17;;;10.00;99.90;;;;;;5134154;27;20174;-75
2022/01/03 00:58:34;;;;;;;2.27;1.17;;;9.90;99.90;;;;;;5133964;27;20170;-74
2022/01/03 01:01:01;;;;;;;9.43;0.73;;;9.80;99.90;;;;;;5134108;27;20194;-74
2022/01/03 01:03:36;;;;;;;0.27;0.27;;;9.80;99.90;;;;;;5115526;27;20186;-74
2022/01/03 01:06:04;;;;;;;1.10;1.10;;;9.80;99.90;;;;;;5133708;27;20655;-74
2022/01/03 01:08:33;;;;;;;8.40;2.00;;;9.90;99.90;;;;;;5133806;27;20264;-74
2022/01/03 01:11:00;;;;;;;0.73;0.63;;;9.80;99.90;;;;;;5115710;27;20212;-74
2022/01/03 01:13:26;;;;;;;0.10;0.10;;;9.80;99.90;;;;;;5115561;27;20205;-74
2022/01/03 01:15:52;;;;;;;0.30;0.30;;;9.70;99.90;;;;;;5133264;27;20596;-73
2022/01/03 01:18:17;;;;;;;0.00;0.00;;;9.70;99.90;;;;;;5133818;27;20174;-74
2022/01/03 01:20:43;;;;;;;0.40;0.40;;;9.70;99.90;;;;;;5133671;27;20729;-73
2022/01/03 01:23:10;;;;;;;1.70;0.87;;;9.70;99.90;;;;;;5134224;27;20174;-74
2022/01/03 01:28:04;;;;;;;0.10;0.10;;;9.90;99.90;;;;;;5133382;27;20170;-74
2022/01/03 01:30:30;;;;;;;3.53;2.10;;;10.00;99.90;;;;;;5133215;27;20227;-74
2022/01/03 01:33:04;;;;;;;0.47;0.47;;;10.00;99.90;;;;;;5133271;27;20194;-74
2022/01/03 01:35:45;;;;;;;5.33;1.90;;;10.10;99.90;;;;;;5133259;27;20182;-74
2022/01/03 01:38:16;;;;;;;0.20;0.20;;;10.10;99.90;;;;;;5133408;27;20166;-74
2022/01/03 01:40:53;;;;;;;1.33;1.03;;;10.00;99.90;;;;;;5133061;27;20187;-74
2022/01/03 01:43:41;;;;;;;0.93;0.93;;;10.00;99.90;;;;;;5114277;27;20188;-74
2022/01/03 01:46:10;;;;;;;1.10;0.87;;;10.00;99.90;;;;;;5120378;27;20194;-74
2022/01/03 01:48:37;;;;;;;1.03;0.60;;;10.00;99.90;;;;;;5111615;27;20216;-74
2022/01/03 01:51:05;;;;;;;0.10;0.10;;;10.00;99.90;;;;;;5127919;27;20258;-74
2022/01/03 01:53:31;;;;;;;0.40;0.40;;;10.10;99.90;;;;;;5127725;27;20209;-74
2022/01/03 01:55:58;;;;;;;1.87;0.50;;;10.00;99.90;;;;;;5132606;27;20198;-74
2022/01/03 01:58:34;;;;;;;0.77;0.77;;;10.10;99.90;;;;;;5114450;27;20170;-74
2022/01/03 02:01:04;;;;;;;17.47;1.40;;;10.20;99.90;;;;;;5132772;27;20215;-74
2022/01/03 02:03:51;;;;;;;0.10;0.10;;;10.20;99.90;;;;;;5132628;27;20240;-75
2022/01/03 02:06:40;;;;;;;0.50;0.50;;;10.20;99.90;;;;;;5132588;27;20209;-74
2022/01/03 02:09:29;;;;;;;1.90;1.00;;;10.10;99.90;;;;;;5114421;27;20175;-74
2022/01/03 02:11:56;;;;;;;3.60;1.80;;;10.10;99.90;;;;;;5132430;27;20183;-74
2022/01/03 02:14:26;;;;;;;2.50;2.30;;;10.00;99.90;;;;;;5114158;27;20817;-74
2022/01/03 02:16:53;;;;;;;5.20;1.30;;;10.00;99.90;;;;;;5132034;27;20685;-74
2022/01/03 02:19:21;;;;;;;0.20;0.20;;;9.90;99.90;;;;;;5114162;27;20182;-73
2022/01/03 02:21:47;;;;;;;0.00;0.00;;;9.90;99.90;;;;;;5132442;27;20220;-73
2022/01/03 02:24:13;;;;;;;38.97;4.93;;;9.90;99.90;;;;;;5114014;27;20193;-73
2022/01/03 02:26:39;;;;;;;0.10;0.10;;;9.90;99.90;;;;;;5131927;27;20197;-74
2022/01/03 02:29:06;;;;;;;9.40;1.20;;;9.90;99.90;;;;;;5132464;27;20272;-74
2022/01/03 02:31:32;;;;;;;0.40;0.40;;;9.90;99.90;;;;;;5132349;27;20174;-74
2022/01/03 02:34:01;;;;;;;0.20;0.20;;;9.80;99.90;;;;;;5132283;27;20205;-74
2022/01/03 02:36:29;;;;;;;2.30;2.13;;;9.80;99.90;;;;;;5132619;27;20198;-74
2022/01/03 02:38:55;;;;;;;0.70;0.47;;;9.70;99.90;;;;;;5134391;27;20185;-74
2022/01/03 02:41:21;;;;;;;0.30;0.30;;;9.70;99.90;;;;;;5114798;27;20181;-74
2022/01/03 02:43:50;;;;;;;10.43;0.87;;;9.80;99.90;;;;;;5132764;27;20183;-74
2022/01/03 02:46:15;;;;;;;0.10;0.10;;;9.80;99.90;;;;;;5101618;28;20203;-74
2022/01/03 02:48:41;;;;;;;3.53;1.40;;;9.80;99.90;;;;;;5130497;28;20182;-74
2022/01/03 02:51:07;;;;;;;1.10;1.10;;;9.70;99.90;;;;;;5127209;28;20196;-74
2022/01/03 02:53:33;;;;;;;2.83;0.93;;;9.80;99.90;;;;;;5128446;28;20208;-74
2022/01/03 02:55:58;;;;;;;0.10;0.10;;;9.90;99.90;;;;;;5132242;27;20205;-74
2022/01/03 02:58:24;;;;;;;0.50;0.50;;;10.00;99.90;;;;;;5135803;27;20227;-74
2022/01/03 03:00:51;;;;;;;2.60;1.70;;;10.10;99.90;;;;;;5136937;27;20178;-74
2022/01/03 03:03:19;;;;;;;0.20;0.20;;;10.10;99.90;;;;;;5136590;27;20264;-74
2022/01/03 03:05:45;;;;;;;0.40;0.40;;;10.10;99.90;;;;;;5136105;27;20185;-72
2022/01/03 03:08:12;;;;;;;1.03;0.93;;;10.10;99.90;;;;;;5136360;27;20209;-74
2022/01/03 03:10:37;;;;;;;0.00;0.00;;;10.00;99.90;;;;;;5136272;27;20625;-74
2022/01/03 03:13:03;;;;;;;0.40;0.30;;;10.10;99.90;;;;;;5117568;27;20236;-75
2022/01/03 03:15:30;;;;;;;0.10;0.10;;;10.10;99.90;;;;;;5136227;27;20170;-74
2022/01/03 03:17:56;;;;;;;1.83;1.33;;;10.10;99.90;;;;;;5135683;27;20213;-74
2022/01/03 03:20:24;;;;;;;0.40;0.40;;;10.10;99.90;;;;;;5117611;27;20283;-74
2022/01/03 03:22:51;;;;;;;0.03;0.03;;;10.10;99.90;;;;;;5135769;27;20178;-74
2022/01/03 03:25:20;;;;;;;0.83;0.83;;;10.10;99.90;;;;;;5136066;27;20174;-74
2022/01/03 03:27:48;;;;;;;1.53;0.70;;;10.10;99.90;;;;;;5135458;27;20243;-74
2022/01/03 03:30:19;;;;;;;0.93;0.93;;;10.20;99.90;;;;;;5135885;27;20264;-73
2022/01/03 03:32:46;;;;;;;0.23;0.23;;;10.20;99.90;;;;;;5135461;27;20194;-74
2022/01/03 03:35:12;;;;;;;0.50;0.50;;;10.10;99.90;;;;;;5117276;27;20188;-74
2022/01/03 03:37:37;;;;;;;1.70;0.83;;;10.10;99.90;;;;;;5135240;27;20255;-74
2022/01/03 03:40:04;;;;;;;4.97;1.10;;;10.00;99.90;;;;;;5135634;27;20521;-74
2022/01/03 03:42:30;;;;;;;0.57;0.30;;;9.90;99.90;;;;;;5134928;27;20269;-74
2022/01/03 03:44:55;;;;;;;12.63;0.50;;;9.90;99.90;;;;;;5133659;27;20253;-74
2022/01/03 03:47:21;;;;;;;0.50;0.50;;;9.80;99.90;;;;;;5121421;27;20200;-74
2022/01/03 03:49:46;;;;;;;1.93;1.57;;;9.80;99.90;;;;;;5117022;27;20192;-74
2022/01/03 03:52:13;;;;;;;0.40;0.40;;;9.80;99.90;;;;;;5125029;27;20598;-73
2022/01/03 03:54:39;;;;;;;0.20;0.20;;;9.70;99.90;;;;;;5121116;27;20171;-73
2022/01/03 03:57:05;;;;;;;2.00;1.30;;;9.70;99.90;;;;;;5103506;27;20627;-73
2022/01/03 03:59:31;;;;;;;0.20;0.20;;;9.60;99.90;;;;;;5116665;27;20203;-75
2022/01/03 04:01:58;;;;;;;0.00;0.00;;;9.70;99.90;;;;;;5135385;27;20174;-74
2022/01/03 04:04:23;;;;;;;1.83;0.97;;;9.70;99.90;;;;;;5116647;27;20185;-74
2022/01/03 04:06:49;;;;;;;0.10;0.10;;;9.60;99.90;;;;;;5134931;27;20186;-74
2022/01/03 04:09:15;;;;;;;0.10;0.10;;;9.50;99.90;;;;;;5134827;27;20177;-75
2022/01/03 04:11:40;;;;;;;0.00;0.00;;;9.50;99.90;;;;;;5134990;27;20259;-74
2022/01/03 04:14:06;;;;;;;4.30;0.80;;;9.60;99.90;;;;;;5134820;27;20202;-73
2022/01/03 04:16:33;;;;;;;0.10;0.10;;;9.60;99.90;;;;;;5134539;27;20254;-74
2022/01/03 04:19:00;;;;;;;0.30;0.30;;;9.60;99.90;;;;;;5116551;27;20680;-74
2022/01/03 04:21:26;;;;;;;1.60;1.50;;;9.50;99.90;;;;;;5134766;27;20171;-74
2022/01/03 04:23:52;;;;;;;1.53;1.43;;;9.50;99.90;;;;;;5134835;27;20174;-74
2022/01/03 04:26:18;;;;;;;0.30;0.30;;;9.50;99.90;;;;;;5115787;27;20221;-74
2022/01/03 04:28:44;;;;;;;0.20;0.20;;;9.50;99.90;;;;;;5134706;27;20643;-75
2022/01/03 04:31:10;;;;;;;2.03;0.27;;;9.60;99.90;;;;;;5116263;27;20725;-74
2022/01/03 04:33:35;;;;;;;0.00;0.00;;;9.50;99.90;;;;;;5134719;27;20289;-74
2022/01/03 04:36:01;;;;;;;0.67;0.67;;;9.40;99.90;;;;;;5134226;27;20665;-74
2022/01/03 04:38:27;;;;;;;0.20;0.10;;;9.50;99.90;;;;;;5134580;27;20170;-75
2022/01/03 04:40:53;;;;;;;0.10;0.10;;;9.50;99.90;;;;;;5134430;27;20173;-74
2022/01/03 04:43:18;;;;;;;0.93;0.47;;;9.60;99.90;;;;;;5133972;27;20185;-74
2022/01/03 04:45:44;;;;;;;0.10;0.10;;;9.60;99.90;;;;;;5125448;27;20685;-73
2022/01/03 04:48:10;;;;;;;1.87;0.50;;;9.50;99.90;;;;;;5108854;27;20235;-75
2022/01/03 04:50:35;;;;;;;0.10;0.10;;;9.50;99.90;;;;;;5134300;27;20206;-74
2022/01/03 04:53:01;;;;;;;3.27;1.87;;;9.50;99.90;;;;;;5123154;27;20657;-74
2022/01/03 04:55:26;;;;;;;2.87;2.03;;;9.60;99.90;;;;;;5134284;27;20953;-74
2022/01/03 04:57:53;;;;;;;1.30;1.23;;;9.50;99.90;;;;;;5133983;27;20170;-75
2022/01/03 05:00:19;;;;;;;1.50;1.40;;;9.60;99.90;;;;;;5134203;27;20175;-75
2022/01/03 05:02:45;;;;;;;14.77;0.73;;;9.60;99.90;;;;;;5134031;27;20261;-75
2022/01/03 05:05:11;;;;;;;0.43;0.43;;;9.60;99.90;;;;;;5134038;27;20762;-74
2022/01/03 05:07:37;;;;;;;0.10;0.10;;;9.60;99.90;;;;;;5133417;27;20197;-74
2022/01/03 05:10:03;;;;;;;0.87;0.30;;;9.50;99.90;;;;;;5115549;27;20179;-75
2022/01/03 05:12:29;;;;;;;8.90;0.97;;;9.50;99.90;;;;;;5133965;27;20205;-75
2022/01/03 05:14:55;;;;;;;0.33;0.33;;;9.50;99.90;;;;;;5115618;27;20178;-75
2022/01/03 05:17:20;;;;;;;0.00;0.00;;;9.50;99.90;;;;;;5108340;22;20713;-74
2022/01/03 05:19:46;;;;;;;0.90;0.90;;;9.40;99.90;;;;;;5066915;28;20184;-74
2022/01/03 05:22:11;;;;;;;0.10;0.10;;;9.50;99.90;;;;;;5051115;28;20212;-74
2022/01/03 05:24:37;;;;;;;0.50;0.50;;;9.50;99.90;;;;;;5052544;28;20185;-74
2022/01/03 05:27:05;;;;;;;0.20;0.20;;;9.50;99.90;;;;;;5052132;28;20211;-74
2022/01/03 05:29:31;;;;;;;0.00;0.00;;;9.60;99.90;;;;;;5052278;28;20181;-74
2022/01/03 05:31:57;;;;;;;0.80;0.80;;;9.70;99.90;;;;;;5051634;28;20173;-74
2022/01/03 05:34:23;;;;;;;1.20;0.83;;;9.70;99.90;;;;;;5052300;28;20303;-75
2022/01/03 05:36:48;;;;;;;8.67;2.23;;;9.80;99.90;;;;;;5051936;28;20576;-75
2022/01/03 05:39:14;;;;;;;0.60;0.60;;;9.70;99.90;;;;;;5046694;28;20173;-75
2022/01/03 05:41:41;;;;;;;4.80;1.20;;;9.70;99.90;;;;;;5044406;28;20181;-76
2022/01/03 05:44:07;;;;;;;0.00;0.00;;;9.60;99.90;;;;;;5052252;28;20169;-75
2022/01/03 05:46:33;;;;;;;2.20;0.83;;;9.60;99.90;;;;;;5035535;28;20338;-75
2022/01/03 05:48:59;;;;;;;0.07;0.07;;;9.50;99.90;;;;;;5025898;28;20195;-75
2022/01/03 05:51:25;;;;;;;2.23;0.63;;;9.40;99.90;;;;;;5052544;28;20180;-75
2022/01/03 05:53:52;;;;;;;4.03;1.30;;;9.40;99.90;;;;;;5052175;28;20678;-75
2022/01/03 05:56:19;;;;;;;3.20;0.87;;;9.40;99.90;;;;;;5050441;28;20544;-76
2022/01/03 05:58:44;;;;;;;2.77;2.00;;;9.40;99.90;;;;;;5051926;28;20177;-75
2022/01/03 06:01:10;;;;;;;0.50;0.50;;;9.40;99.90;;;;;;5051949;28;20184;-75
2022/01/03 06:03:38;;;;;;;0.33;0.33;;;9.40;99.90;;;;;;5051017;28;20667;-75
2022/01/03 06:06:18;;;;;;;0.33;0.20;;;9.40;99.90;;;;;;5051888;28;20260;-76
2022/01/03 06:08:44;;;;;;;8.00;0.40;;;9.40;99.90;;;;;;5050293;28;20181;-74
2022/01/03 06:11:09;;;;;;;0.40;0.40;;;9.40;99.90;;;;;;5052433;28;20243;-75
2022/01/03 06:13:35;;;;;;;0.57;0.57;;;9.30;99.90;;;;;;5059869;28;20272;-76
2022/01/03 06:16:01;;;;;;;0.03;0.03;;;9.30;99.90;;;;;;5069780;28;20183;-75
2022/01/03 06:18:26;;;;;;;0.10;0.10;;;9.30;99.90;;;;;;5049333;28;20221;-75
2022/01/03 06:20:52;;;;;;;0.20;0.20;;;9.50;99.90;;;;;;5045632;28;20181;-76
2022/01/03 06:23:19;;;;;;;0.77;0.77;;;9.50;99.90;;;;;;5050660;28;20216;-76
2022/01/03 06:25:46;;;;;;;2.20;1.50;;;9.40;99.90;;;;;;5051753;28;20213;-74
2022/01/03 06:28:11;;;;;;;1.00;0.93;;;9.50;99.90;;;;;;5055518;28;20208;-76
2022/01/03 06:30:38;;;;;;;0.07;0.07;;;9.60;99.90;;;;;;5051664;28;20218;-76
2022/01/03 06:33:05;;;;;;;0.57;0.57;;;9.60;99.90;;;;;;5050418;28;20584;-77
2022/01/03 06:35:32;;;;;;;0.53;0.53;;;9.60;99.90;;;;;;5051988;28;20196;-76
2022/01/03 06:37:58;;;;;;;4.50;1.97;;;9.50;99.90;;;;;;5050686;28;20209;-75
2022/01/03 06:40:25;;;;;;;0.50;0.50;;;9.50;99.90;;;;;;5051545;28;20588;-74
2022/01/03 06:42:51;;;;;;;21.23;1.17;;;9.40;99.90;;;;;;5050275;28;20727;-75
2022/01/03 06:45:17;;;;;;;0.00;0.00;;;9.30;99.90;;;;;;5046983;28;20185;-75
2022/01/03 06:47:43;;;;;;;0.37;0.37;;;9.30;99.90;;;;;;5040860;28;20200;-75
2022/01/03 06:50:09;;;;;;;0.10;0.10;;;9.20;99.90;;;;;;5036577;28;20191;-75
2022/01/03 06:52:35;;;;;;;1.20;0.73;;;9.20;99.90;;;;;;5051175;28;20292;-75
2022/01/03 06:55:02;;;;;;;1.37;1.27;;;9.20;99.90;;;;;;5050047;28;20189;-75
2022/01/03 06:57:27;;;;;;;0.20;0.20;;;9.20;99.90;;;;;;5050938;28;20201;-75
2022/01/03 06:59:53;;;;;;;11.43;1.70;;;9.30;99.90;;;;;;5051224;28;20217;-75
2022/01/03 07:02:19;;;;;;;0.60;0.60;;;9.30;99.90;;;;;;5049977;28;20189;-75
2022/01/03 07:04:45;;;;;;;1.90;1.00;;;9.40;99.90;;;;;;5050694;28;20177;-75
2022/01/03 07:07:10;;;;;;;4.27;0.73;;;9.50;99.90;;;;;;5050998;28;20239;-75
2022/01/03 07:09:36;;;;;;;2.93;0.93;;;9.50;99.90;;;;;;5049945;28;20181;-75
2022/01/03 07:12:01;;;;;;;0.00;0.00;;;9.60;99.90;;;;;;5052285;28;20179;-74
2022/01/03 07:19:41;;;;;;;0.00;0.00;;;9.40;99.90;;;;;;5051251;28;20260;-75
2022/01/03 07:22:08;;;;;;;7.13;1.17;;;9.40;99.90;;;;;;5049619;28;20182;-75
2022/01/03 07:24:39;;;;;;;2.63;1.17;;;9.30;99.90;;;;;;5051128;28;20177;-75
2022/01/03 07:27:07;;;;;;;0.53;0.53;;;9.20;99.90;;;;;;5049490;28;20233;-76
2022/01/03 07:29:33;;;;;;;0.20;0.20;;;9.10;99.90;;;;;;5051273;28;20181;-75
2022/01/03 07:31:59;;;;;;;0.30;0.30;;;9.10;99.90;;;;;;5049665;28;20545;-74
2022/01/03 07:34:25;;;;;;;0.43;0.43;;;9.00;99.90;;;;;;5049420;28;20217;-75
2022/01/03 07:36:51;;;;;;;1.17;0.97;;;9.00;99.90;;;;;;5050773;28;20587;-74
2022/01/03 07:39:17;;;;;;;0.33;0.30;;;9.00;99.90;;;;;;5050878;28;20181;-75
2022/01/03 07:41:43;;;;;;;0.03;0.03;;;9.10;99.90;;;;;;5050812;28;20204;-76
2022/01/03 07:44:08;;;;;;;1.03;0.97;;;9.10;99.90;;;;;;5052140;28;20215;-75
2022/01/03 07:46:34;;;;;;;0.53;0.53;;;9.10;99.90;;;;;;5038198;28;20526;-78
2022/01/03 07:49:00;;;;;;;0.87;0.87;;;9.20;99.90;;;;;;5054126;28;20274;-78
2022/01/03 07:51:26;;;;;;;0.30;0.30;;;9.20;99.90;;;;;;5049070;28;20196;-78
2022/01/03 07:53:52;;;;;;;0.00;0.00;;;9.20;99.90;;;;;;5055425;28;20208;-77
2022/01/03 07:56:20;;;;;;;0.80;0.80;;;9.30;99.90;;;;;;5054422;28;20185;-78
2022/01/03 07:58:47;;;;;;;0.20;0.20;;;9.30;99.90;;;;;;5043002;28;20203;-76
2022/01/03 08:01:13;;;;;;;1.90;0.97;;;9.20;99.90;;;;;;5054111;28;20267;-77
2022/01/03 08:03:38;;;;;;;0.97;0.83;;;9.10;99.90;;;;;;5052524;28;20276;-77
2022/01/03 08:06:04;;;;;;;0.00;0.00;;;9.10;99.90;;;;;;5053224;28;20188;-76
2022/01/03 08:08:30;;;;;;;0.00;0.00;;;9.00;99.90;;;;;;5053975;28;20225;-76
2022/01/03 08:10:56;;;;;;;0.10;0.10;;;9.10;99.90;;;;;;5052977;28;20591;-76
2022/01/03 08:13:21;;;;;;;1.23;1.17;;;9.00;99.90;;;;;;5053646;28;20208;-76
2022/01/03 08:15:47;;;;;;;0.10;0.10;;;9.00;99.90;;;;;;5054032;28;20200;-76
2022/01/03 08:18:13;;;;;;;0.57;0.57;;;9.00;99.90;;;;;;5053858;28;20212;-76
2022/01/03 08:20:39;;;;;;;2.80;0.93;;;9.00;99.90;;;;;;5053185;28;20188;-75
2022/01/03 08:23:05;;;;;;;0.93;0.93;;;9.10;99.90;;;;;;5059542;28;20184;-75
2022/01/03 08:25:36;;;;;;;0.00;0.00;;;9.10;99.90;;;;;;5063906;28;20718;-74
2022/01/03 08:28:05;;;;;;;0.30;0.30;;;9.10;99.90;;;;;;5052162;28;20226;-75
2022/01/03 08:30:31;;;;;;;0.70;0.70;;;9.10;99.90;;;;;;5053687;28;20182;-75
2022/01/03 08:32:57;;;;;;;0.27;0.13;;;9.10;99.90;;;;;;5045278;28;20208;-74
2022/01/03 08:35:24;;;;;;;0.30;0.30;;;9.20;99.90;;;;;;5048744;28;20180;-74
2022/01/03 08:37:50;;;;;;;0.50;0.50;;;9.30;99.90;;;;;;5053411;28;20204;-74
2022/01/03 08:40:17;;;;;;;0.20;0.20;;;9.30;99.90;;;;;;5050701;28;20267;-74
2022/01/03 08:42:42;;;;;;;0.00;0.00;;;9.40;99.90;;;;;;5041292;28;20833;-75
2022/01/03 08:45:08;;;;;;;0.70;0.57;;;9.50;99.90;;;;;;5049679;28;20186;-74
2022/01/03 08:47:34;;;;;;;0.97;0.97;;;9.60;99.90;;;;;;5041952;28;20676;-74
2022/01/03 08:50:00;;;;;;;1.23;1.03;;;9.70;99.90;;;;;;5054422;28;20189;-74
2022/01/03 08:52:25;;;;;;;11.43;1.80;;;9.70;99.90;;;;;;5054270;28;20182;-74
2022/01/03 08:54:51;;;;;;;0.30;0.30;;;9.70;99.90;;;;;;5052672;28;20173;-74
2022/01/03 08:57:16;;;;;;;1.33;1.03;;;9.70;99.90;;;;;;5053244;28;20201;-74
2022/01/03 08:59:42;;;;;;;1.10;1.03;;;9.80;99.90;;;;;;5053301;28;20173;-74
2022/01/03 09:02:08;;;;;;;0.10;0.10;;;9.80;99.90;;;;;;5052629;28;20174;-75
2022/01/03 09:04:33;;;;;;;0.00;0.00;;;9.90;99.90;;;;;;5052973;28;20230;-74
2022/01/03 09:06:59;;;;;;;8.17;2.07;;;10.00;99.90;;;;;;5052589;28;20603;-74
2022/01/03 09:09:27;;;;;;;34.47;2.23;;;10.10;99.90;;;;;;5052977;28;20181;-75
2022/01/03 09:11:53;;;;;;;0.30;0.30;;;10.20;99.90;;;;;;5052857;28;20199;-75
2022/01/03 09:14:19;;;;;;;0.97;0.20;;;10.20;99.90;;;;;;5052773;28;20205;-75
2022/01/03 09:16:45;;;;;;;0.80;0.80;;;10.20;99.90;;;;;;5052275;28;20188;-74
2022/01/03 09:19:10;;;;;;;0.00;0.00;;;10.30;99.90;;;;;;5052921;28;20177;-74
2022/01/03 09:21:36;;;;;;;1.47;0.60;;;10.40;99.90;;;;;;5051423;28;20273;-74
2022/01/03 09:24:20;;;;;;;0.10;0.10;;;10.30;99.90;;;;;;5052633;28;20189;-75
2022/01/03 09:29:31;;;;;;;1.13;1.07;;;10.30;99.90;;;;;;5052795;28;20185;-75
2022/01/03 09:31:56;;;;;;;0.10;0.10;;;10.30;99.90;;;;;;5052317;28;20183;-75
2022/01/03 09:34:22;;;;;;;0.10;0.10;;;10.30;99.90;;;;;;5052422;28;20206;-74
2022/01/03 09:36:48;;;;;;;0.80;0.80;;;10.30;99.90;;;;;;5052003;28;20213;-75
2022/01/03 09:39:13;;;;;;;20.67;0.80;;;10.30;99.90;;;;;;5052376;28;20603;-74
2022/01/03 09:41:55;;;;;;;0.10;0.10;;;10.20;99.90;;;;;;5052053;28;20548;-75
2022/01/03 09:44:27;;;;;;;0.27;0.27;;;10.20;99.90;;;;;;5052514;28;20179;-74
2022/01/03 09:46:54;;;;;;;0.43;0.43;;;10.30;99.90;;;;;;5035655;28;20232;-75
2022/01/03 09:49:21;;;;;;;3.50;0.30;;;10.30;99.90;;;;;;5052096;28;20671;-75
2022/01/03 09:51:47;;;;;;;0.87;0.87;;;10.30;99.90;;;;;;5052038;28;20184;-74
2022/01/03 09:54:15;;;;;;;1.40;1.13;;;10.40;99.90;;;;;;5052304;28;20279;-74
2022/01/03 09:56:42;;;;;;;3.00;1.23;;;10.40;99.90;;;;;;5051609;28;20252;-74
2022/01/03 09:59:08;;;;;;;6.17;2.03;;;10.40;99.90;;;;;;5051846;28;20215;-74
2022/01/03 10:01:35;;;;;;;0.10;0.10;;;10.40;99.90;;;;;;5051894;28;20173;-74
2022/01/03 10:04:03;;;;;;;0.20;0.20;;;10.50;99.90;;;;;;5052021;28;20204;-75
2022/01/03 10:06:29;;;;;;;0.93;0.73;;;10.60;99.90;;;;;;5051485;28;20243;-74
2022/01/03 10:08:55;;;;;;;0.10;0.10;;;10.70;99.90;;;;;;5052061;28;20181;-74
2022/01/03 10:11:22;;;;;;;0.00;0.00;;;10.80;99.90;;;;;;5051044;28;20177;-74
2022/01/03 10:13:49;;;;;;;0.23;0.23;;;10.90;99.90;;;;;;5051742;28;20753;-75
2022/01/03 10:16:14;;;;;;;0.10;0.10;;;10.90;99.90;;;;;;5051684;28;20686;-74
2022/01/03 10:18:40;;;;;;;0.10;0.10;;;10.90;99.90;;;;;;5050154;28;20213;-74
2022/01/03 10:21:07;;;;;;;0.40;0.40;;;11.00;99.90;;;;;;5051748;28;20173;-75
2022/01/03 10:23:34;;;;;;;0.30;0.30;;;11.00;99.90;;;;;;5050424;28;20335;-74
2022/01/03 10:26:20;;;;;;;0.30;0.30;;;11.10;99.90;;;;;;5050997;28;20220;-75
2022/01/03 10:28:46;;;;;;;0.40;0.37;;;11.20;99.90;;;;;;5050457;28;20189;-74
2022/01/03 10:31:19;;;;;;;0.20;0.20;;;11.40;99.90;;;;;;5051529;28;20191;-74
2022/01/03 10:33:46;;;;;;;0.57;0.57;;;11.40;99.90;;;;;;5050128;28;20757;-74
2022/01/03 10:36:32;;;;;;;5.30;1.10;;;11.40;99.90;;;;;;5049732;28;20267;-74
2022/01/03 10:38:59;;;;;;;1.27;0.43;;;11.40;99.90;;;;;;5051773;28;20193;-74
2022/01/03 10:41:25;;;;;;;0.37;0.37;;;11.50;99.90;;;;;;5051492;28;20599;-74
2022/01/03 10:43:58;;;;;;;0.10;0.10;;;11.40;99.90;;;;;;5050109;28;20727;-75
2022/01/03 10:46:24;;;;;;;1.33;0.87;;;11.20;99.90;;;;;;5035877;28;20661;-74
2022/01/03 10:48:51;;;;;;;0.00;0.00;;;11.20;99.90;;;;;;5050180;28;20189;-74
2022/01/03 10:51:24;;;;;;;1.03;0.77;;;11.10;99.90;;;;;;5049836;28;20568;-74
2022/01/03 10:53:53;;;;;;;0.00;0.00;;;11.00;99.90;;;;;;5051152;28;20222;-74
2022/01/03 10:56:35;;;;;;;0.10;0.10;;;11.00;99.90;;;;;;5049685;28;20331;-74
2022/01/03 10:59:18;;;;;;;1.60;1.20;;;11.00;99.90;;;;;;5049979;28;20268;-74
2022/01/03 11:01:50;;;;;;;5.90;1.17;;;11.00;99.90;;;;;;5048510;28;20184;-74
2022/01/03 11:13:09;;;;;;;0.23;0.23;;;11.30;99.90;;;;;;5051499;28;20212;-73
2022/01/03 11:15:37;;;;;;;0.17;0.17;;;11.40;99.90;;;;;;5051075;28;20307;-74
2022/01/03 11:18:24;;;;;;;0.03;0.03;;;11.30;99.90;;;;;;5077624;22;20309;-72
2022/01/03 11:21:13;;;;;;;6.17;1.20;;;11.30;99.90;;;;;;5074800;28;20184;-74
2022/01/03 11:23:43;;;;;;;0.10;0.10;;;11.30;99.90;;;;;;5074934;28;20662;-73
2022/01/03 11:26:20;;;;;;;21.67;0.57;;;11.20;99.90;;;;;;5074064;28;20188;-73
2022/01/03 11:28:47;;;;;;;0.10;0.10;;;11.20;99.90;;;;;;5074876;28;20746;-74
2022/01/03 11:31:15;;;;;;;0.57;0.57;;;11.20;99.90;;;;;;5074716;28;20176;-74
2022/01/03 11:33:41;;;;;;;0.10;0.10;;;11.20;99.90;;;;;;5074741;28;20219;-74
2022/01/03 11:36:08;;;;;;;1.70;1.40;;;11.10;99.90;;;;;;5074922;28;20690;-74
2022/01/03 11:38:36;;;;;;;0.07;0.07;;;11.10;99.90;;;;;;5074580;28;20201;-74
2022/01/03 11:41:05;;;;;;;0.10;0.10;;;11.10;99.90;;;;;;5074822;28;20180;-74
2022/01/03 11:43:33;;;;;;;0.30;0.30;;;11.00;99.90;;;;;;5074398;28;20182;-74
2022/01/03 11:45:59;;;;;;;0.10;0.10;;;11.00;99.90;;;;;;5062586;28;20185;-74
2022/01/03 11:48:26;;;;;;;0.73;0.53;;;10.90;99.90;;;;;;5069978;28;20212;-74
2022/01/03 11:50:54;;;;;;;2.43;1.17;;;10.80;99.90;;;;;;5074490;28;20263;-74
2022/01/03 11:53:20;;;;;;;2.10;1.17;;;10.80;99.90;;;;;;5072811;28;20200;-74
2022/01/03 11:55:54;;;;;;;0.10;0.10;;;10.80;99.90;;;;;;5074107;28;20247;-73
2022/01/03 11:58:48;;;;;;;0.00;0.00;;;10.90;99.90;;;;;;5073940;28;20687;-74
2022/01/03 12:04:00;;;;;;;0.00;0.00;;;11.00;99.90;;;;;;5074164;28;20205;-74
2022/01/03 12:06:33;;;;;;;0.20;0.20;;;11.00;99.90;;;;;;5072427;28;20207;-74
2022/01/03 12:09:11;;;;;;;0.50;0.30;;;11.00;99.90;;;;;;5074094;28;20212;-74
2022/01/03 12:11:55;;;;;;;0.40;0.40;;;11.00;99.90;;;;;;5058880;28;20190;-74
2022/01/03 12:14:22;;;;;;;0.50;0.50;;;11.10;99.90;;;;;;5072540;28;20560;-74
2022/01/03 12:16:53;;;;;;;4.17;1.50;;;11.10;99.90;;;;;;5073799;28;20188;-74
2022/01/03 12:19:24;;;;;;;0.67;0.40;;;11.10;99.90;;;;;;5072526;28;20290;-74
2022/01/03 12:21:50;;;;;;;0.10;0.10;;;11.10;99.90;;;;;;5073770;28;20552;-74
2022/01/03 12:24:34;;;;;;;0.57;0.57;;;11.10;99.90;;;;;;5072325;28;20182;-74
2022/01/03 12:27:12;;;;;;;0.10;0.10;;;11.20;99.90;;;;;;5073440;28;20243;-74
2022/01/03 12:29:58;;;;;;;22.57;0.70;;;11.20;99.90;;;;;;5073231;28;20182;-73
2022/01/03 12:32:25;;;;;;;2.00;0.70;;;11.20;99.90;;;;;;5073470;28;20612;-74
2022/01/03 12:35:16;;;;;;;7.87;1.73;;;11.20;99.90;;;;;;5072071;28;20672;-74
2022/01/03 12:37:43;;;;;;;0.10;0.10;;;11.20;99.90;;;;;;5073101;28;20668;-74
2022/01/03 12:40:11;;;;;;;0.57;0.57;;;11.20;99.90;;;;;;5073468;28;20184;-74
2022/01/03 12:42:45;;;;;;;0.10;0.10;;;11.30;99.90;;;;;;5073747;28;20192;-74
2022/01/03 12:45:12;;;;;;;0.10;0.10;;;11.30;99.90;;;;;;5069803;28;20543;-74
2022/01/03 12:47:39;;;;;;;0.30;0.30;;;11.30;99.90;;;;;;5060151;28;20295;-74
2022/01/03 12:50:28;;;;;;;0.10;0.10;;;11.30;99.90;;;;;;5073166;28;20178;-74
2022/01/03 12:52:59;;;;;;;0.70;0.63;;;11.30;99.90;;;;;;5073039;28;20620;-74
2022/01/03 12:55:43;;;;;;;0.20;0.20;;;11.20;99.90;;;;;;5073096;28;20196;-74
2022/01/03 12:58:16;;;;;;;0.13;0.13;;;11.10;99.90;;;;;;5072745;28;20207;-74
2022/01/03 13:00:44;;;;;;;0.50;0.47;;;11.20;99.90;;;;;;5073190;28;20191;-74
2022/01/03 13:03:21;;;;;;;0.63;0.63;;;11.20;99.90;;;;;;5065556;28;20222;-73
2022/01/03 13:06:25;;;;;;;0.00;0.00;;;11.10;99.90;;;;;;5053942;28;20187;-73
2022/01/03 13:08:56;;;;;;;0.30;0.30;;;11.10;99.90;;;;;;4990442;28;20855;-74
2022/01/03 13:11:31;;;;;;;0.33;0.33;;;11.00;99.90;;;;;;5043585;28;20192;-73
2022/01/03 13:14:23;;;;;;;0.00;0.00;;;11.00;99.90;;;;;;5064992;28;20208;-74
2022/01/03 13:16:52;;;;;;;0.10;0.10;;;11.00;99.90;;;;;;5069614;28;20216;-74
2022/01/03 13:19:44;;;;;;;0.40;0.40;;;11.00;99.90;;;;;;5072719;28;20196;-74
2022/01/03 13:22:12;;;;;;;0.30;0.30;;;10.90;99.90;;;;;;5069897;28;20186;-74